Time;durP1;ratioP1;P1;durP2;ratioP2;P2;SDS_P1;SDS_P2;PMS_P1;PMS_P2;Temp;Humidity;BMP_temperature;BMP_pressure;BME280_temperature;BME280_humidity;BME280_pressure;Samples;Min_cycle;Max_cycle;Signal;HPM_P1;HPM_P2
2021/01/13 00:00:28;;;;;;;14.73;10.70;;;0.00;97.40;;;;;;5061258;28;20456;-84
2021/01/13 00:02:54;;;;;;;13.63;10.57;;;0.00;98.10;;;;;;5060431;28;20466;-85
2021/01/13 00:05:21;;;;;;;13.77;10.50;;;0.00;99.50;;;;;;5042462;28;20463;-84
2021/01/13 00:07:51;;;;;;;16.03;10.20;;;-0.10;99.40;;;;;;5061343;28;20449;-84
2021/01/13 00:10:19;;;;;;;14.13;10.40;;;0.00;98.60;;;;;;5044107;28;20476;-85
2021/01/13 00:12:46;;;;;;;18.50;10.27;;;-0.10;98.30;;;;;;5048457;28;20466;-85
2021/01/13 00:15:14;;;;;;;19.43;11.07;;;-0.10;99.90;;;;;;5069211;28;20464;-82
2021/01/13 00:17:49;;;;;;;16.13;10.87;;;-0.10;99.90;;;;;;5054910;28;20470;-84
2021/01/13 00:20:16;;;;;;;14.43;10.10;;;-0.10;99.90;;;;;;5064013;28;20912;-83
2021/01/13 00:22:46;;;;;;;17.63;9.97;;;-0.20;99.90;;;;;;5068725;28;21071;-84
2021/01/13 00:25:16;;;;;;;19.33;10.23;;;-0.10;99.90;;;;;;5069842;28;20451;-83
2021/01/13 00:27:43;;;;;;;16.50;11.10;;;-0.20;99.90;;;;;;5066820;28;20464;-84
2021/01/13 00:30:11;;;;;;;21.63;12.50;;;-0.20;99.90;;;;;;5064287;28;20516;-84
2021/01/13 00:32:39;;;;;;;22.83;11.67;;;-0.20;99.90;;;;;;5072760;28;20844;-84
2021/01/13 00:35:10;;;;;;;13.40;10.60;;;-0.20;99.90;;;;;;5071224;28;20462;-84
2021/01/13 00:37:40;;;;;;;18.40;10.60;;;-0.20;99.90;;;;;;5070292;28;20454;-84
2021/01/13 00:40:09;;;;;;;17.90;11.00;;;-0.30;99.90;;;;;;5066442;28;20454;-84
2021/01/13 00:42:42;;;;;;;19.20;12.40;;;-0.20;99.90;;;;;;5066303;28;20466;-84
2021/01/13 00:45:11;;;;;;;18.73;12.80;;;-0.30;99.90;;;;;;5060771;28;20461;-84
2021/01/13 00:47:41;;;;;;;17.80;12.00;;;-0.20;99.90;;;;;;5070070;28;20440;-85
2021/01/13 00:50:18;;;;;;;20.43;12.77;;;-0.20;99.90;;;;;;5074093;28;20476;-84
2021/01/13 00:52:46;;;;;;;17.17;12.40;;;-0.30;99.90;;;;;;5056336;28;20442;-84
2021/01/13 00:55:13;;;;;;;20.50;12.57;;;-0.30;99.90;;;;;;5062208;28;20446;-83
2021/01/13 00:57:39;;;;;;;18.70;12.07;;;-0.30;99.90;;;;;;5060058;28;20450;-83
2021/01/13 01:00:07;;;;;;;22.10;12.13;;;-0.40;99.90;;;;;;5044205;28;20466;-84
2021/01/13 01:02:36;;;;;;;21.50;12.83;;;-0.30;99.90;;;;;;5067993;28;20493;-84
2021/01/13 01:05:08;;;;;;;15.93;11.17;;;-0.30;99.90;;;;;;5061956;28;20470;-84
2021/01/13 01:07:41;;;;;;;16.30;11.50;;;-0.40;99.90;;;;;;5070741;28;20581;-82
2021/01/13 01:10:09;;;;;;;19.40;12.17;;;-0.20;99.90;;;;;;5075916;28;20478;-77
2021/01/13 01:12:36;;;;;;;21.43;13.13;;;-0.20;99.90;;;;;;5050081;28;20556;-77
2021/01/13 01:15:03;;;;;;;20.10;12.03;;;-0.20;99.90;;;;;;5057151;28;20444;-79
2021/01/13 01:17:30;;;;;;;19.73;12.57;;;-0.30;99.90;;;;;;5057733;28;20452;-79
2021/01/13 01:19:56;;;;;;;19.80;12.77;;;-0.30;99.90;;;;;;5050880;28;20960;-78
2021/01/13 01:22:22;;;;;;;18.60;12.77;;;-0.40;99.90;;;;;;5051279;28;20469;-78
2021/01/13 01:24:49;;;;;;;22.63;13.50;;;-0.40;99.90;;;;;;5053349;28;20457;-79
2021/01/13 01:27:16;;;;;;;16.17;10.37;;;-0.30;99.90;;;;;;5053171;28;20550;-79
2021/01/13 01:29:42;;;;;;;16.97;11.80;;;-0.40;99.90;;;;;;5052569;28;20445;-79
2021/01/13 01:32:09;;;;;;;19.83;14.17;;;-0.30;99.90;;;;;;5048978;28;20440;-78
2021/01/13 01:34:35;;;;;;;20.77;13.37;;;-0.30;99.90;;;;;;5055836;28;20448;-78
2021/01/13 01:37:02;;;;;;;16.83;12.20;;;-0.30;99.90;;;;;;5051847;28;20483;-77
2021/01/13 01:39:28;;;;;;;20.47;12.03;;;-0.20;99.20;;;;;;5055068;28;20738;-80
2021/01/13 01:41:55;;;;;;;23.40;13.07;;;-0.10;98.20;;;;;;5045522;28;20596;-78
2021/01/13 01:44:22;;;;;;;19.43;12.53;;;-0.20;96.50;;;;;;5054176;28;20480;-78
2021/01/13 01:46:56;;;;;;;19.03;12.33;;;-0.20;96.00;;;;;;5046294;28;20479;-78
2021/01/13 01:49:25;;;;;;;18.73;13.13;;;-0.20;95.90;;;;;;5058418;28;20486;-81
2021/01/13 01:52:06;;;;;;;19.07;13.10;;;-0.30;96.60;;;;;;5056172;28;20484;-80
2021/01/13 01:54:35;;;;;;;22.97;12.33;;;-0.30;96.20;;;;;;5060094;28;20445;-82
2021/01/13 01:57:04;;;;;;;22.33;13.23;;;-0.30;97.20;;;;;;5057221;28;20515;-82
2021/01/13 01:59:42;;;;;;;15.73;10.97;;;-0.30;96.70;;;;;;5065708;28;20927;-80
2021/01/13 02:02:10;;;;;;;18.10;12.50;;;-0.10;95.20;;;;;;5065963;28;20466;-84
2021/01/13 02:04:42;;;;;;;23.53;13.43;;;-0.10;94.40;;;;;;5064485;28;20906;-82
2021/01/13 02:07:30;;;;;;;19.70;13.10;;;-0.10;94.50;;;;;;5037336;28;20446;-83
2021/01/13 02:09:57;;;;;;;17.67;12.03;;;-0.10;94.30;;;;;;5056598;28;20445;-83
2021/01/13 02:12:42;;;;;;;15.73;11.93;;;0.00;94.20;;;;;;5035771;28;20618;-85
2021/01/13 02:15:09;;;;;;;17.83;11.90;;;0.10;93.70;;;;;;5033771;28;20553;-84
2021/01/13 02:17:38;;;;;;;22.53;13.17;;;0.10;93.20;;;;;;5074126;28;20451;-84
2021/01/13 02:20:15;;;;;;;18.33;11.53;;;0.10;93.10;;;;;;5066120;28;20455;-84
2021/01/13 02:22:57;;;;;;;23.30;13.60;;;0.20;92.60;;;;;;5070988;28;20479;-84
2021/01/13 02:26:22;;;;;;;19.50;11.70;;;0.20;92.50;;;;;;5065457;28;20466;-84
2021/01/13 02:29:12;;;;;;;20.30;12.43;;;0.30;92.50;;;;;;5000942;28;20455;-84
2021/01/13 02:31:50;;;;;;;19.13;11.83;;;0.30;92.40;;;;;;5062672;28;20438;-84
2021/01/13 02:34:31;;;;;;;18.47;13.10;;;0.40;92.20;;;;;;5061318;28;20517;-84
2021/01/13 02:37:34;;;;;;;22.23;13.03;;;0.40;91.70;;;;;;5059044;28;20456;-84
2021/01/13 02:40:06;;;;;;;25.20;14.70;;;0.40;91.20;;;;;;5059679;28;20462;-83
2021/01/13 02:42:37;;;;;;;20.50;12.63;;;0.40;91.10;;;;;;5072707;28;20463;-84
2021/01/13 02:45:14;;;;;;;23.33;12.30;;;0.40;91.30;;;;;;5067715;28;20459;-83
2021/01/13 02:48:18;;;;;;;21.10;12.90;;;0.40;91.10;;;;;;5067558;28;20451;-83
2021/01/13 02:50:50;;;;;;;21.17;11.00;;;0.50;90.60;;;;;;5029827;28;20455;-84
2021/01/13 02:53:47;;;;;;;21.97;12.17;;;0.50;90.40;;;;;;5052144;28;20453;-84
2021/01/13 02:56:32;;;;;;;16.57;11.33;;;0.50;90.90;;;;;;5068145;28;20461;-83
2021/01/13 02:59:07;;;;;;;18.47;11.57;;;0.50;90.40;;;;;;5057379;28;20517;-83
2021/01/13 03:01:42;;;;;;;17.50;11.37;;;0.50;89.80;;;;;;5039140;28;20466;-83
2021/01/13 03:04:10;;;;;;;14.73;11.33;;;0.40;90.30;;;;;;5062548;28;20458;-84
2021/01/13 03:06:41;;;;;;;19.70;12.87;;;0.40;90.30;;;;;;5060405;28;20475;-83
2021/01/13 03:09:09;;;;;;;18.93;11.77;;;0.30;90.10;;;;;;5039446;28;20455;-84
2021/01/13 03:11:37;;;;;;;19.57;13.00;;;0.40;90.10;;;;;;5040172;28;20458;-83
2021/01/13 03:14:12;;;;;;;16.80;11.53;;;0.30;90.20;;;;;;5058752;28;20482;-83
2021/01/13 03:16:54;;;;;;;19.43;12.00;;;0.30;90.50;;;;;;5041368;28;20456;-83
2021/01/13 03:19:29;;;;;;;16.10;11.57;;;0.30;90.50;;;;;;5058103;28;20455;-83
2021/01/13 03:22:03;;;;;;;17.97;11.80;;;0.30;90.40;;;;;;5062011;28;20478;-84
2021/01/13 03:24:41;;;;;;;17.70;11.50;;;0.30;90.50;;;;;;5060217;28;20463;-84
2021/01/13 03:27:18;;;;;;;20.83;10.97;;;0.30;90.60;;;;;;5056381;28;20484;-83
2021/01/13 03:29:51;;;;;;;17.57;10.90;;;0.20;90.50;;;;;;5039956;28;20565;-83
2021/01/13 03:32:22;;;;;;;21.23;12.50;;;0.20;90.50;;;;;;5064071;28;20446;-83
2021/01/13 03:35:06;;;;;;;17.00;10.23;;;0.10;90.50;;;;;;5070896;28;20482;-83
2021/01/13 03:37:52;;;;;;;15.63;11.07;;;0.10;91.00;;;;;;5044222;28;21014;-82
2021/01/13 03:40:21;;;;;;;17.73;11.47;;;0.10;90.60;;;;;;5066362;28;20482;-84
2021/01/13 03:42:51;;;;;;;23.00;12.53;;;0.30;90.20;;;;;;5067618;28;20473;-84
2021/01/13 03:45:34;;;;;;;14.50;10.30;;;0.30;89.50;;;;;;5065617;28;20429;-83
2021/01/13 03:48:28;;;;;;;21.60;11.63;;;0.30;88.90;;;;;;5061138;28;20853;-83
2021/01/13 03:50:56;;;;;;;22.23;10.50;;;0.40;88.10;;;;;;5062333;28;20557;-84
2021/01/13 03:53:27;;;;;;;13.47;9.23;;;0.40;88.40;;;;;;5063832;28;20451;-83
2021/01/13 03:55:58;;;;;;;17.77;10.20;;;0.40;88.10;;;;;;5056368;28;20979;-84
2021/01/13 03:58:50;;;;;;;18.40;11.50;;;0.40;87.80;;;;;;5055552;28;21097;-84
2021/01/13 04:01:45;;;;;;;15.73;10.30;;;0.40;88.30;;;;;;5042399;28;20503;-83
2021/01/13 04:04:25;;;;;;;17.30;9.63;;;0.40;87.20;;;;;;5056952;28;20449;-83
2021/01/13 04:07:00;;;;;;;12.17;8.57;;;0.40;87.10;;;;;;5059372;28;20462;-84
2021/01/13 04:09:30;;;;;;;17.27;10.43;;;0.40;86.40;;;;;;5049138;28;20517;-83
2021/01/13 04:12:08;;;;;;;15.47;10.97;;;0.40;86.70;;;;;;5061505;28;21003;-83
2021/01/13 04:14:48;;;;;;;11.70;8.33;;;0.40;85.70;;;;;;5058400;28;20495;-84
2021/01/13 04:17:21;;;;;;;17.70;9.27;;;0.40;86.10;;;;;;5061119;28;20454;-82
2021/01/13 04:19:49;;;;;;;13.43;8.73;;;0.40;86.30;;;;;;5067767;28;20463;-83
2021/01/13 04:22:18;;;;;;;13.03;8.07;;;0.40;86.20;;;;;;5053722;28;20553;-84
2021/01/13 04:27:34;;;;;;;14.90;8.00;;;0.30;86.10;;;;;;5061754;28;20511;-83
2021/01/13 04:30:01;;;;;;;15.07;10.13;;;0.30;86.20;;;;;;5058922;28;20458;-84
2021/01/13 04:32:29;;;;;;;17.90;8.20;;;0.30;86.80;;;;;;5043739;28;20499;-84
2021/01/13 04:34:58;;;;;;;15.80;8.07;;;0.20;87.60;;;;;;5051156;28;20604;-83
2021/01/13 04:37:31;;;;;;;14.10;8.57;;;0.20;87.50;;;;;;5065122;28;20467;-84
2021/01/13 04:40:16;;;;;;;13.80;9.07;;;0.20;87.00;;;;;;5060772;28;20460;-83
2021/01/13 04:43:03;;;;;;;10.23;7.97;;;0.20;87.20;;;;;;5066867;28;20479;-84
2021/01/13 04:45:37;;;;;;;11.77;8.00;;;0.20;87.10;;;;;;5071119;28;20476;-83
2021/01/13 04:48:06;;;;;;;13.63;8.60;;;0.10;86.90;;;;;;5064681;28;20484;-83
2021/01/13 04:50:37;;;;;;;16.83;8.20;;;0.10;87.00;;;;;;5053604;28;20442;-82
2021/01/13 04:53:20;;;;;;;12.10;7.33;;;0.20;85.60;;;;;;5020709;28;20682;-82
2021/01/13 04:55:49;;;;;;;10.70;7.60;;;0.20;86.00;;;;;;5065345;28;20474;-83
2021/01/13 04:58:56;;;;;;;11.50;8.57;;;0.20;86.30;;;;;;5054316;28;20464;-83
2021/01/13 05:02:14;;;;;;;12.33;8.30;;;0.20;85.70;;;;;;5073774;28;20459;-82
2021/01/13 05:04:59;;;;;;;11.50;7.87;;;0.20;85.90;;;;;;5077104;28;20471;-83
2021/01/13 05:07:33;;;;;;;9.60;7.60;;;0.20;86.10;;;;;;5082337;28;20456;-83
2021/01/13 05:10:05;;;;;;;15.87;6.60;;;0.20;85.10;;;;;;5073094;28;20458;-83
2021/01/13 05:12:46;;;;;;;11.60;7.90;;;0.20;84.30;;;;;;5071589;28;20484;-83
2021/01/13 05:15:15;;;;;;;13.33;8.00;;;0.20;84.80;;;;;;5063450;28;20441;-83
2021/01/13 05:18:04;;;;;;;11.40;6.63;;;0.20;85.10;;;;;;5058983;28;20503;-84
2021/01/13 05:20:36;;;;;;;10.80;7.37;;;0.10;84.50;;;;;;5058879;28;20784;-84
2021/01/13 05:23:06;;;;;;;9.03;7.17;;;0.00;85.20;;;;;;5044677;28;20461;-83
2021/01/13 05:25:52;;;;;;;14.10;7.67;;;0.00;85.40;;;;;;5045398;28;20493;-84
2021/01/13 05:28:26;;;;;;;10.53;6.70;;;0.00;85.40;;;;;;5067803;28;20968;-84
2021/01/13 05:30:57;;;;;;;18.13;7.73;;;0.10;84.60;;;;;;5063927;28;20459;-84
2021/01/13 05:33:27;;;;;;;14.30;7.43;;;0.00;85.30;;;;;;5058718;28;20805;-84
2021/01/13 05:35:57;;;;;;;12.50;7.73;;;-0.20;86.30;;;;;;5057987;28;20464;-84
2021/01/13 05:39:10;;;;;;;14.90;8.27;;;-0.40;87.80;;;;;;5056839;28;20443;-84
2021/01/13 05:41:41;;;;;;;12.87;8.70;;;-0.40;88.20;;;;;;5056201;28;21300;-84
2021/01/13 05:44:09;;;;;;;11.13;8.30;;;-0.50;88.90;;;;;;5062126;28;20463;-84
2021/01/13 05:46:46;;;;;;;15.10;8.33;;;-0.60;89.20;;;;;;5055514;28;20482;-84
2021/01/13 05:49:16;;;;;;;17.63;9.13;;;-0.60;89.70;;;;;;5055230;28;20441;-84
2021/01/13 05:51:44;;;;;;;15.20;8.93;;;-0.70;89.90;;;;;;5052732;28;20470;-83
2021/01/13 05:54:18;;;;;;;13.57;8.90;;;-0.70;90.30;;;;;;5051964;28;20464;-84
2021/01/13 05:56:45;;;;;;;12.53;8.83;;;-0.80;90.20;;;;;;5055064;28;20458;-84
2021/01/13 05:59:13;;;;;;;13.83;9.50;;;-0.80;90.30;;;;;;5059050;28;20446;-84
2021/01/13 06:01:47;;;;;;;18.00;9.00;;;-0.90;90.10;;;;;;5063250;28;20604;-84
2021/01/13 06:04:16;;;;;;;12.40;7.00;;;-0.90;89.10;;;;;;5063950;28;20542;-84
2021/01/13 06:06:58;;;;;;;13.33;8.63;;;-0.90;89.10;;;;;;5067698;28;20443;-84
2021/01/13 06:09:28;;;;;;;16.20;8.73;;;-0.90;89.80;;;;;;5067019;28;20544;-84
2021/01/13 06:11:56;;;;;;;17.70;8.63;;;-1.00;88.80;;;;;;5068065;28;20442;-84
2021/01/13 06:14:26;;;;;;;15.03;7.70;;;-1.00;89.80;;;;;;5067887;28;20448;-83
2021/01/13 06:16:56;;;;;;;12.23;8.20;;;-1.00;90.10;;;;;;5054233;28;20544;-83
2021/01/13 06:19:33;;;;;;;12.87;8.67;;;-1.10;90.30;;;;;;5043713;28;20468;-83
2021/01/13 06:22:12;;;;;;;16.30;6.97;;;-1.20;90.60;;;;;;5044802;28;21050;-83
2021/01/13 06:24:42;;;;;;;12.37;7.37;;;-1.20;91.30;;;;;;5063791;28;20469;-83
2021/01/13 06:27:17;;;;;;;21.30;7.87;;;-1.30;90.70;;;;;;5065136;28;20508;-83
2021/01/13 06:29:48;;;;;;;18.00;7.97;;;-1.30;91.10;;;;;;5065235;28;20867;-83
2021/01/13 06:32:31;;;;;;;18.43;9.60;;;-1.20;90.90;;;;;;5059156;28;20466;-84
2021/01/13 06:35:20;;;;;;;14.60;9.27;;;-1.20;90.90;;;;;;5062679;28;20468;-84
2021/01/13 06:37:50;;;;;;;13.43;8.13;;;-1.20;91.00;;;;;;5057653;28;20442;-84
2021/01/13 06:40:24;;;;;;;19.53;8.40;;;-1.20;90.00;;;;;;5063494;28;20536;-85
2021/01/13 06:42:52;;;;;;;13.57;8.33;;;-1.20;90.10;;;;;;5074334;28;20469;-84
2021/01/13 06:45:31;;;;;;;20.27;8.90;;;-1.20;90.10;;;;;;5071567;28;20509;-83
2021/01/13 06:47:58;;;;;;;14.30;9.53;;;-1.20;90.40;;;;;;5062655;28;20462;-84
2021/01/13 06:50:43;;;;;;;12.67;8.13;;;-1.00;90.10;;;;;;5054448;28;20450;-84
2021/01/13 06:53:11;;;;;;;11.23;8.03;;;-0.80;87.60;;;;;;5066327;28;20445;-82
2021/01/13 06:55:40;;;;;;;9.93;7.63;;;-0.60;85.80;;;;;;5066272;28;20466;-82
2021/01/13 06:58:10;;;;;;;12.75;7.55;;;-0.50;83.00;;;;;;5043774;28;20443;-76
2021/01/13 07:00:37;;;;;;;10.13;6.80;;;-0.40;82.60;;;;;;5058476;28;20577;-81
2021/01/13 07:03:29;;;;;;;13.10;6.93;;;-0.40;82.50;;;;;;5037619;28;20541;-79
2021/01/13 07:05:56;;;;;;;9.17;5.50;;;-0.30;82.10;;;;;;5052822;28;20462;-79
2021/01/13 07:08:23;;;;;;;12.53;7.03;;;-0.20;81.20;;;;;;5051898;28;20462;-79
2021/01/13 07:11:03;;;;;;;18.43;6.43;;;-0.20;80.50;;;;;;5058838;28;20454;-77
2021/01/13 07:13:32;;;;;;;8.30;6.20;;;-0.30;80.10;;;;;;5057695;28;20873;-75
2021/01/13 07:16:02;;;;;;;10.40;5.40;;;-0.50;80.90;;;;;;5053587;28;20454;-80
2021/01/13 07:18:29;;;;;;;7.93;6.10;;;-0.60;81.20;;;;;;5056934;28;20819;-84
2021/01/13 07:20:56;;;;;;;9.43;5.80;;;-0.60;82.10;;;;;;5047843;28;20495;-77
2021/01/13 07:23:23;;;;;;;8.93;6.20;;;-0.70;82.90;;;;;;5053642;28;20470;-76
2021/01/13 07:25:50;;;;;;;12.33;6.77;;;-0.60;82.70;;;;;;5046491;28;20457;-76
2021/01/13 07:28:18;;;;;;;9.10;6.63;;;-0.40;82.00;;;;;;5056138;28;20465;-76
2021/01/13 07:30:45;;;;;;;14.70;7.40;;;-0.30;81.40;;;;;;5053222;28;20524;-77
2021/01/13 07:33:15;;;;;;;12.53;6.73;;;-0.20;80.70;;;;;;5061008;28;20973;-76
2021/01/13 07:35:46;;;;;;;10.00;6.77;;;-0.10;79.80;;;;;;5058345;28;20455;-76
2021/01/13 07:38:16;;;;;;;8.17;6.10;;;0.00;80.10;;;;;;5058311;28;20514;-79
2021/01/13 07:40:58;;;;;;;11.73;6.20;;;0.10;79.40;;;;;;5054613;28;20450;-82
2021/01/13 07:44:23;;;;;;;15.90;7.10;;;0.10;78.90;;;;;;5054676;28;20476;-79
2021/01/13 07:47:01;;;;;;;13.60;7.00;;;0.20;78.50;;;;;;5054293;28;20535;-80
2021/01/13 07:49:42;;;;;;;18.23;7.87;;;0.30;78.30;;;;;;5041351;28;20443;-83
2021/01/13 07:52:11;;;;;;;18.80;6.80;;;0.30;77.70;;;;;;5064629;28;20539;-81
2021/01/13 07:54:38;;;;;;;11.40;7.17;;;0.30;77.20;;;;;;5073764;28;20443;-80
2021/01/13 07:57:07;;;;;;;13.50;7.40;;;0.30;77.10;;;;;;5063732;28;20459;-79
2021/01/13 07:59:40;;;;;;;10.20;7.53;;;0.30;77.20;;;;;;5061178;28;20438;-78
2021/01/13 08:02:57;;;;;;;12.40;6.80;;;0.30;77.20;;;;;;5053392;28;20491;-78
2021/01/13 08:06:26;;;;;;;11.03;7.23;;;0.20;77.60;;;;;;5054800;28;20775;-77
2021/01/13 08:09:13;;;;;;;11.50;6.73;;;0.30;77.50;;;;;;5053297;28;20561;-79
2021/01/13 08:12:18;;;;;;;12.40;6.90;;;0.50;77.40;;;;;;5054429;28;21267;-79
2021/01/13 08:15:44;;;;;;;13.77;8.20;;;0.60;76.90;;;;;;5053246;28;20470;-78
2021/01/13 08:18:49;;;;;;;11.27;8.40;;;0.60;76.80;;;;;;5056580;28;20465;-77
2021/01/13 08:21:24;;;;;;;13.57;8.50;;;0.50;77.10;;;;;;5053537;28;20645;-78
2021/01/13 08:23:56;;;;;;;15.40;9.20;;;0.50;77.20;;;;;;5050057;28;20486;-79
2021/01/13 08:26:23;;;;;;;15.27;9.33;;;0.50;76.80;;;;;;5053507;28;20438;-79
2021/01/13 08:28:52;;;;;;;12.27;8.40;;;0.60;77.30;;;;;;5055773;28;20586;-79
2021/01/13 08:31:22;;;;;;;15.90;9.17;;;0.60;77.10;;;;;;5059740;28;20459;-79
2021/01/13 08:34:06;;;;;;;16.17;10.20;;;0.70;76.70;;;;;;5041132;28;20453;-80
2021/01/13 08:36:33;;;;;;;19.93;10.90;;;0.80;76.30;;;;;;5065340;28;20442;-81
2021/01/13 08:39:13;;;;;;;16.93;10.77;;;0.90;77.60;;;;;;5061877;28;20453;-81
2021/01/13 08:41:42;;;;;;;17.33;11.47;;;1.00;77.50;;;;;;5060245;28;20452;-78
2021/01/13 08:44:11;;;;;;;15.87;11.93;;;1.00;76.70;;;;;;5058285;28;21206;-78
2021/01/13 08:46:48;;;;;;;15.40;10.20;;;1.10;76.20;;;;;;5055627;28;20452;-80
2021/01/13 08:49:22;;;;;;;14.03;11.00;;;1.10;76.20;;;;;;5063992;28;20476;-83
2021/01/13 08:52:18;;;;;;;19.60;11.47;;;1.20;75.80;;;;;;5064471;28;20446;-81
2021/01/13 08:55:06;;;;;;;19.20;11.20;;;1.20;75.60;;;;;;5008484;28;20482;-81
2021/01/13 08:57:51;;;;;;;17.27;10.80;;;1.20;75.10;;;;;;5064244;28;20452;-83
2021/01/13 09:00:22;;;;;;;17.20;10.00;;;1.50;75.10;;;;;;5064280;28;20533;-79
2021/01/13 09:03:10;;;;;;;14.90;10.70;;;1.50;74.70;;;;;;5057155;28;20500;-78
2021/01/13 09:05:38;;;;;;;15.13;9.47;;;1.70;74.30;;;;;;5054900;28;20456;-78
2021/01/13 09:08:07;;;;;;;18.90;9.17;;;1.70;74.20;;;;;;5058670;28;20467;-79
2021/01/13 09:10:47;;;;;;;15.10;8.60;;;1.80;73.70;;;;;;5056717;28;20465;-77
2021/01/13 09:13:31;;;;;;;16.40;8.90;;;1.70;73.20;;;;;;5059604;28;20498;-79
2021/01/13 09:16:19;;;;;;;18.00;9.10;;;1.90;73.70;;;;;;5055403;28;21025;-80
2021/01/13 09:18:54;;;;;;;11.77;7.97;;;2.00;73.40;;;;;;5055445;28;20464;-79
2021/01/13 09:21:29;;;;;;;13.47;7.70;;;2.20;72.40;;;;;;5052236;28;20451;-81
2021/01/13 09:23:57;;;;;;;10.57;8.40;;;2.10;72.40;;;;;;5048216;28;20525;-79
2021/01/13 09:26:31;;;;;;;11.17;7.90;;;2.20;72.30;;;;;;5050244;28;20470;-80
2021/01/13 09:29:04;;;;;;;10.33;7.27;;;2.40;72.60;;;;;;5057355;28;20480;-79
2021/01/13 09:31:31;;;;;;;15.73;7.93;;;2.50;72.20;;;;;;5052057;28;20485;-81
2021/01/13 09:33:59;;;;;;;10.67;6.67;;;2.30;71.30;;;;;;5065628;28;20448;-83
2021/01/13 09:36:26;;;;;;;12.40;7.20;;;2.40;71.70;;;;;;5053862;28;20448;-79
2021/01/13 09:39:13;;;;;;;9.33;7.47;;;2.40;71.20;;;;;;5061850;28;20465;-81
2021/01/13 09:41:42;;;;;;;9.37;6.63;;;2.50;70.90;;;;;;5054462;28;20473;-78
2021/01/13 09:44:12;;;;;;;8.70;6.43;;;2.40;70.90;;;;;;5058961;28;20586;-77
2021/01/13 09:46:39;;;;;;;9.33;7.20;;;2.40;70.80;;;;;;5053603;28;20451;-80
2021/01/13 09:49:08;;;;;;;10.60;5.93;;;2.50;70.70;;;;;;5061445;28;20490;-79
2021/01/13 09:51:36;;;;;;;12.05;8.50;;;2.50;70.30;;;;;;5067000;28;20450;-80
2021/01/13 09:54:04;;;;;;;12.37;7.13;;;2.30;70.40;;;;;;5046709;28;20194;-81
2021/01/13 09:56:33;;;;;;;9.90;7.70;;;2.80;70.70;;;;;;5057687;28;20460;-79
2021/01/13 09:59:03;;;;;;;13.27;7.00;;;2.90;70.10;;;;;;5055315;28;20451;-77
2021/01/13 10:01:32;;;;;;;8.80;6.30;;;3.30;69.50;;;;;;5057248;28;20984;-79
2021/01/13 10:04:01;;;;;;;13.33;7.60;;;3.10;69.20;;;;;;5054866;28;20479;-80
2021/01/13 10:06:30;;;;;;;17.40;8.20;;;3.20;69.10;;;;;;5051290;28;20527;-79
2021/01/13 10:09:08;;;;;;;8.83;6.30;;;3.20;68.90;;;;;;5062102;28;20440;-82
2021/01/13 10:11:39;;;;;;;12.43;6.60;;;3.00;68.40;;;;;;5058566;28;20477;-81
2021/01/13 10:14:08;;;;;;;8.60;6.67;;;2.80;68.30;;;;;;5059887;28;20486;-80
2021/01/13 10:16:42;;;;;;;12.50;7.10;;;2.90;68.60;;;;;;5047085;28;20453;-79
2021/01/13 10:19:10;;;;;;;8.93;6.67;;;2.90;68.50;;;;;;5065802;28;20462;-80
2021/01/13 10:21:40;;;;;;;11.83;6.10;;;3.00;68.30;;;;;;5065489;28;20469;-79
2021/01/13 10:24:08;;;;;;;8.87;5.90;;;2.90;68.00;;;;;;5053995;28;20482;-79
2021/01/13 10:26:44;;;;;;;10.07;6.57;;;2.80;68.60;;;;;;5055383;28;20459;-80
2021/01/13 10:29:13;;;;;;;13.17;6.83;;;3.00;68.90;;;;;;5038878;28;20501;-79
2021/01/13 10:31:40;;;;;;;8.10;6.80;;;3.00;68.10;;;;;;5053875;28;20441;-79
2021/01/13 10:34:10;;;;;;;11.15;7.97;;;2.90;68.30;;;;;;5055926;28;20510;-80
2021/01/13 10:36:43;;;;;;;17.53;7.50;;;2.90;68.00;;;;;;5065512;28;20545;-79
2021/01/13 10:39:16;;;;;;;12.83;6.83;;;3.00;67.70;;;;;;5069175;28;20460;-82
2021/01/13 10:41:46;;;;;;;11.50;6.30;;;2.90;67.80;;;;;;5072725;28;20455;-84
2021/01/13 10:44:16;;;;;;;9.30;7.45;;;2.80;68.10;;;;;;5069955;28;20460;-88
2021/01/13 10:46:55;;;;;;;12.30;6.97;;;2.70;67.80;;;;;;5080974;28;20207;-85
2021/01/13 10:49:26;;;;;;;9.97;6.50;;;2.80;67.70;;;;;;5085032;28;20466;-86
2021/01/13 10:52:16;;;;;;;8.50;6.40;;;2.60;67.60;;;;;;5056259;28;20485;-86
2021/01/13 10:55:02;;;;;;;8.83;6.17;;;2.90;67.70;;;;;;5044027;28;20463;-86
2021/01/13 10:57:32;;;;;;;11.07;6.20;;;3.10;67.20;;;;;;5071082;28;20454;-90
2021/01/13 11:00:06;;;;;;;9.25;6.15;;;3.20;66.80;;;;;;5075728;28;20456;-86
2021/01/13 11:02:33;;;;;;;8.27;6.13;;;3.20;66.50;;;;;;5072145;28;20206;-84
2021/01/13 11:05:02;;;;;;;7.30;6.17;;;3.30;65.70;;;;;;5065592;28;20451;-85
2021/01/13 11:07:38;;;;;;;7.10;5.23;;;3.30;66.30;;;;;;5063906;28;20563;-86
2021/01/13 11:10:12;;;;;;;11.70;5.47;;;3.40;66.20;;;;;;5059788;28;20455;-84
2021/01/13 11:12:42;;;;;;;7.80;5.50;;;3.50;66.00;;;;;;5063946;28;20467;-85
2021/01/13 11:15:12;;;;;;;6.50;5.30;;;3.50;65.70;;;;;;5060476;28;20986;-86
2021/01/13 11:17:40;;;;;;;6.40;5.50;;;3.70;65.50;;;;;;5069133;28;20487;-87
2021/01/13 11:20:08;;;;;;;8.20;5.40;;;3.70;64.30;;;;;;5064518;28;20521;-85
2021/01/13 11:22:46;;;;;;;7.17;5.53;;;3.50;64.60;;;;;;5064201;28;20869;-87
2021/01/13 11:25:24;;;;;;;6.77;4.53;;;3.70;65.00;;;;;;5066815;28;20460;-86
2021/01/13 11:27:56;;;;;;;8.40;5.23;;;3.60;64.10;;;;;;5061523;28;20444;-87
2021/01/13 11:30:24;;;;;;;8.77;4.50;;;3.50;64.00;;;;;;5061056;28;20467;-87
2021/01/13 11:32:53;;;;;;;8.13;5.13;;;3.40;64.00;;;;;;5070494;28;20432;-88
2021/01/13 11:35:33;;;;;;;5.23;4.73;;;3.30;64.10;;;;;;5069068;28;20812;-86
2021/01/13 11:38:42;;;;;;;7.00;5.10;;;3.40;64.40;;;;;;5063441;28;20489;-86
2021/01/13 11:41:52;;;;;;;7.13;4.63;;;3.60;64.50;;;;;;5063048;28;20458;-85
2021/01/13 11:44:57;;;;;;;5.63;4.47;;;3.60;64.00;;;;;;5045812;28;20537;-89
2021/01/13 11:47:33;;;;;;;9.63;4.97;;;3.40;63.50;;;;;;5070089;28;20486;-88
2021/01/13 11:50:12;;;;;;;6.27;4.77;;;3.50;64.00;;;;;;5076846;28;20462;-86
2021/01/13 11:52:42;;;;;;;8.03;4.70;;;3.80;63.70;;;;;;5078293;28;20474;-86
2021/01/13 11:55:13;;;;;;;7.97;4.97;;;3.60;63.40;;;;;;5054236;28;20475;-86
2021/01/13 11:57:53;;;;;;;10.50;4.77;;;3.80;63.50;;;;;;5063660;28;20455;-88
2021/01/13 12:00:31;;;;;;;7.83;4.63;;;3.60;63.60;;;;;;5065303;28;20451;-88
2021/01/13 12:03:02;;;;;;;6.63;4.80;;;3.50;64.00;;;;;;5045651;28;20472;-89
2021/01/13 12:05:37;;;;;;;6.60;4.50;;;3.30;63.40;;;;;;5060662;28;20460;-87
2021/01/13 12:08:09;;;;;;;7.10;4.50;;;3.20;64.10;;;;;;5066140;28;20450;-89
2021/01/13 12:10:47;;;;;;;8.03;4.63;;;3.30;64.50;;;;;;5062829;28;20465;-89
2021/01/13 12:13:22;;;;;;;15.50;9.07;;;3.60;63.80;;;;;;5048177;28;20483;-88
2021/01/13 12:15:56;;;;;;;10.40;3.80;;;3.60;63.80;;;;;;5057055;28;20491;-86
2021/01/13 12:18:24;;;;;;;7.00;3.90;;;3.70;62.70;;;;;;5059037;28;20452;-86
2021/01/13 12:20:55;;;;;;;7.47;3.83;;;3.70;62.30;;;;;;5051773;28;20979;-87
2021/01/13 12:23:46;;;;;;;5.13;3.70;;;3.80;62.60;;;;;;5055240;28;20530;-87
2021/01/13 12:26:19;;;;;;;6.50;3.70;;;3.70;62.40;;;;;;5059107;28;20476;-86
2021/01/13 12:28:48;;;;;;;5.97;4.50;;;3.70;62.50;;;;;;5060610;28;20829;-87
2021/01/13 12:34:10;;;;;;;6.70;3.23;;;3.60;61.90;;;;;;5057562;28;20456;-90
2021/01/13 12:36:45;;;;;;;6.30;4.23;;;3.50;62.80;;;;;;5062384;28;20452;-89
2021/01/13 12:42:19;;;;;;;5.60;4.37;;;3.10;63.40;;;;;;5074834;28;20532;-90
2021/01/13 12:47:43;;;;;;;8.90;5.00;;;3.00;63.90;;;;;;5070095;28;20470;-90
2021/01/13 12:50:16;;;;;;;5.70;4.83;;;2.90;64.00;;;;;;5064298;28;20454;-89
2021/01/13 12:52:57;;;;;;;10.40;5.77;;;2.80;64.60;;;;;;5071572;28;20464;-89
2021/01/13 12:55:29;;;;;;;6.80;5.40;;;2.80;64.50;;;;;;5064447;28;20475;-87
2021/01/13 13:00:47;;;;;;;7.90;5.90;;;2.80;64.90;;;;;;5079888;28;20558;-91
2021/01/13 13:03:25;;;;;;;7.47;5.40;;;3.00;65.10;;;;;;5085752;28;20457;-91
2021/01/13 13:06:34;;;;;;;6.37;5.10;;;2.80;65.30;;;;;;5058673;28;20455;-90
2021/01/13 13:12:01;;;;;;;6.77;5.07;;;3.00;65.60;;;;;;5082890;28;20542;-90
2021/01/13 13:14:43;;;;;;;8.40;5.80;;;3.00;65.20;;;;;;5071669;28;20480;-89
2021/01/13 13:17:12;;;;;;;10.23;5.90;;;3.00;65.70;;;;;;5068730;28;20476;-88
2021/01/13 13:19:39;;;;;;;10.67;6.00;;;2.90;65.60;;;;;;5073628;28;20468;-83
2021/01/13 13:22:09;;;;;;;10.07;6.70;;;2.90;65.70;;;;;;5076623;28;20486;-86
2021/01/13 13:24:40;;;;;;;8.03;5.67;;;2.90;66.00;;;;;;5073303;28;20286;-86
2021/01/13 13:27:11;;;;;;;5.83;5.03;;;2.90;65.90;;;;;;5068567;28;20445;-86
2021/01/13 13:29:46;;;;;;;9.97;5.83;;;2.80;65.90;;;;;;5062081;28;20451;-86
2021/01/13 13:32:26;;;;;;;8.63;6.43;;;2.90;66.40;;;;;;5086606;28;20475;-87
2021/01/13 13:34:57;;;;;;;8.60;6.00;;;3.10;66.70;;;;;;5064910;28;20454;-87
2021/01/13 13:37:24;;;;;;;11.80;6.60;;;3.00;66.30;;;;;;5060234;28;20468;-87
2021/01/13 13:39:56;;;;;;;7.77;6.07;;;3.00;66.30;;;;;;5069609;28;20482;-88